Time;durP1;ratioP1;P1;durP2;ratioP2;P2;SDS_P1;SDS_P2;PMS_P1;PMS_P2;Temp;Humidity;BMP_temperature;BMP_pressure;BME280_temperature;BME280_humidity;BME280_pressure;Samples;Min_cycle;Max_cycle;Signal;HPM_P1;HPM_P2
2022/12/15 00:38:43;;;;;;;0.10;0.10;;;-4.70;99.90;;;;;;5040564;28;20049;-74
2022/12/15 00:41:11;;;;;;;0.97;0.87;;;-4.60;99.90;;;;;;5043826;28;20048;-73
2022/12/15 00:43:37;;;;;;;0.97;0.60;;;-4.60;99.90;;;;;;5043636;28;20048;-74
2022/12/15 00:48:48;;;;;;;0.90;0.83;;;-4.70;99.90;;;;;;5043084;28;20059;-73
2022/12/15 00:51:15;;;;;;;1.10;1.10;;;-4.80;99.90;;;;;;5043492;28;20444;-73
2022/12/15 01:21:08;;;;;;;0.00;0.00;;;-5.30;99.90;;;;;;5043308;28;20049;-73
2022/12/15 01:23:35;;;;;;;0.53;0.53;;;-5.30;99.90;;;;;;5042471;28;20491;-73
2022/12/15 01:26:01;;;;;;;0.50;0.50;;;-5.40;99.90;;;;;;5043215;28;20083;-74
2022/12/15 01:28:28;;;;;;;1.23;1.23;;;-5.40;99.90;;;;;;5042527;28;20259;-74
2022/12/15 01:30:53;;;;;;;0.00;0.00;;;-5.40;99.90;;;;;;5043068;28;20045;-73
2022/12/15 01:33:20;;;;;;;0.20;0.20;;;-5.20;99.90;;;;;;5043190;28;20075;-74
2022/12/15 01:35:58;;;;;;;0.50;0.50;;;-5.10;99.90;;;;;;5042215;28;20654;-74
2022/12/15 01:38:25;;;;;;;0.70;0.70;;;-5.00;99.90;;;;;;5042326;28;20120;-73
2022/12/15 01:40:54;;;;;;;1.60;0.60;;;-4.80;99.90;;;;;;5042869;28;20056;-74
2022/12/15 01:43:23;;;;;;;0.47;0.47;;;-4.70;99.90;;;;;;5043321;28;20049;-73
2022/12/15 01:45:57;;;;;;;0.30;0.30;;;-4.70;99.90;;;;;;5058416;28;20088;-74
2022/12/15 01:48:32;;;;;;;0.10;0.10;;;-4.60;99.90;;;;;;5046050;28;20055;-74
2022/12/15 01:51:15;;;;;;;0.37;0.37;;;-4.40;99.90;;;;;;5046825;28;20107;-74
2022/12/15 01:54:10;;;;;;;0.50;0.50;;;-4.30;99.90;;;;;;5044755;28;20053;-74
2022/12/15 01:56:41;;;;;;;0.00;0.00;;;-4.20;99.90;;;;;;5046057;28;20080;-74
2022/12/15 01:59:10;;;;;;;0.13;0.13;;;-4.10;99.90;;;;;;5046088;28;20069;-74
2022/12/15 02:01:36;;;;;;;0.30;0.30;;;-4.00;99.90;;;;;;5045377;28;20444;-74
2022/12/15 02:04:02;;;;;;;0.53;0.53;;;-4.00;99.90;;;;;;5046583;28;20438;-74
2022/12/15 02:06:28;;;;;;;0.00;0.00;;;-4.00;99.90;;;;;;5046111;28;20105;-74
2022/12/15 02:08:57;;;;;;;0.00;0.00;;;-4.10;99.90;;;;;;5046220;28;20528;-74
2022/12/15 02:11:35;;;;;;;0.20;0.20;;;-4.20;99.90;;;;;;5046188;28;20081;-74
2022/12/15 02:14:03;;;;;;;0.50;0.50;;;-4.30;99.90;;;;;;5046045;28;20049;-74
2022/12/15 02:16:47;;;;;;;0.20;0.07;;;-4.40;99.90;;;;;;5045562;28;20135;-74
2022/12/15 02:19:46;;;;;;;0.73;0.73;;;-4.40;99.90;;;;;;5046246;28;20132;-74
2022/12/15 02:22:59;;;;;;;0.10;0.10;;;-4.40;99.90;;;;;;5045824;28;20132;-73
2022/12/15 02:25:44;;;;;;;0.00;0.00;;;-4.40;99.90;;;;;;5046067;28;20049;-74
2022/12/15 02:28:29;;;;;;;0.33;0.33;;;-4.50;99.90;;;;;;5046056;28;20056;-73
2022/12/15 02:34:01;;;;;;;0.93;0.83;;;-4.60;99.90;;;;;;5045848;28;20370;-73
2022/12/15 02:36:34;;;;;;;0.20;0.20;;;-4.70;99.90;;;;;;5045852;28;20044;-72
2022/12/15 02:39:00;;;;;;;0.77;0.77;;;-4.70;99.90;;;;;;5045398;28;20056;-73
2022/12/15 02:41:39;;;;;;;0.00;0.00;;;-4.70;99.90;;;;;;5045028;28;20562;-73
2022/12/15 02:44:11;;;;;;;0.10;0.10;;;-4.60;99.90;;;;;;5045308;28;20059;-72
2022/12/15 02:46:59;;;;;;;8.43;1.33;;;-4.50;99.90;;;;;;5045207;28;20055;-73
2022/12/15 02:49:43;;;;;;;1.70;1.60;;;-4.40;99.90;;;;;;5044529;28;20052;-73
2022/12/15 02:52:25;;;;;;;0.10;0.10;;;-4.40;99.90;;;;;;5043768;28;20505;-73
2022/12/15 02:55:13;;;;;;;0.00;0.00;;;-4.50;99.90;;;;;;5045121;28;20059;-73
2022/12/15 02:57:44;;;;;;;0.07;0.07;;;-4.50;99.90;;;;;;5044676;28;20396;-72
2022/12/15 03:00:11;;;;;;;0.13;0.13;;;-4.50;99.90;;;;;;5044431;28;20056;-72
2022/12/15 03:02:41;;;;;;;0.00;0.00;;;-4.60;99.90;;;;;;5044952;28;20440;-73
2022/12/15 03:05:08;;;;;;;0.10;0.10;;;-4.60;99.90;;;;;;5044812;28;20059;-73
2022/12/15 03:07:34;;;;;;;1.90;1.80;;;-4.60;99.90;;;;;;5044898;28;20167;-73
2022/12/15 03:10:03;;;;;;;0.00;0.00;;;-4.70;99.90;;;;;;5044949;28;20531;-73
2022/12/15 03:12:28;;;;;;;0.10;0.10;;;-4.70;99.90;;;;;;5044996;28;20446;-72
2022/12/15 03:14:54;;;;;;;0.40;0.40;;;-4.70;99.90;;;;;;5043843;28;20037;-72
2022/12/15 03:17:20;;;;;;;0.40;0.40;;;-4.80;99.90;;;;;;5044493;28;20070;-73
2022/12/15 03:19:45;;;;;;;0.00;0.00;;;-4.70;99.90;;;;;;5044362;28;20041;-72
2022/12/15 03:22:11;;;;;;;0.00;0.00;;;-4.70;99.90;;;;;;5043987;28;20496;-73
2022/12/15 03:24:37;;;;;;;0.00;0.00;;;-4.80;99.90;;;;;;5043899;28;20041;-73
2022/12/15 03:27:04;;;;;;;0.43;0.43;;;-4.80;99.90;;;;;;5044272;28;20052;-72
2022/12/15 03:29:29;;;;;;;0.20;0.20;;;-4.80;99.90;;;;;;5044377;28;20153;-73
2022/12/15 03:31:55;;;;;;;0.10;0.10;;;-4.70;99.90;;;;;;5044553;28;20386;-72
2022/12/15 03:34:21;;;;;;;1.53;0.60;;;-4.70;99.90;;;;;;5043925;28;20055;-72
2022/12/15 03:36:46;;;;;;;0.00;0.00;;;-4.60;99.90;;;;;;5044031;28;20044;-73
2022/12/15 03:39:12;;;;;;;0.40;0.40;;;-4.60;99.90;;;;;;5044087;28;20081;-73
2022/12/15 03:41:37;;;;;;;0.10;0.10;;;-4.60;99.90;;;;;;5043891;28;20045;-72
2022/12/15 03:44:03;;;;;;;0.10;0.10;;;-4.70;99.90;;;;;;5043762;28;20120;-73
2022/12/15 03:46:29;;;;;;;0.03;0.03;;;-4.80;99.90;;;;;;5044374;28;20037;-73
2022/12/15 03:48:55;;;;;;;0.30;0.30;;;-4.80;99.90;;;;;;5042790;28;20045;-73
2022/12/15 03:51:21;;;;;;;2.33;1.53;;;-4.80;99.90;;;;;;5043973;28;20398;-73
2022/12/15 03:53:48;;;;;;;0.10;0.10;;;-4.80;99.90;;;;;;5043922;28;20520;-72
2022/12/15 03:56:14;;;;;;;2.60;0.53;;;-4.80;99.90;;;;;;5044001;28;20052;-73
2022/12/15 03:58:40;;;;;;;0.10;0.10;;;-4.80;99.90;;;;;;5044178;28;20403;-73
2022/12/15 04:01:11;;;;;;;0.33;0.33;;;-4.90;99.90;;;;;;5044236;28;20041;-73
2022/12/15 04:03:37;;;;;;;0.10;0.10;;;-5.00;99.90;;;;;;5044223;28;20044;-73
2022/12/15 04:06:03;;;;;;;0.00;0.00;;;-5.00;99.90;;;;;;5044110;28;20560;-73
2022/12/15 04:08:29;;;;;;;0.20;0.20;;;-5.00;99.90;;;;;;5043904;28;20045;-73
2022/12/15 04:10:54;;;;;;;3.83;0.87;;;-5.00;99.90;;;;;;5043629;28;20574;-73
2022/12/15 04:13:20;;;;;;;1.00;0.97;;;-5.00;99.90;;;;;;5043883;28;20053;-73
2022/12/15 04:15:46;;;;;;;0.60;0.60;;;-5.00;99.90;;;;;;5043975;28;20055;-72
2022/12/15 04:18:11;;;;;;;0.10;0.10;;;-5.10;99.90;;;;;;5042755;28;20110;-74
2022/12/15 04:20:38;;;;;;;0.73;0.70;;;-5.10;99.90;;;;;;5043920;28;20103;-74
2022/12/15 04:23:08;;;;;;;0.43;0.43;;;-5.10;99.90;;;;;;5043453;28;20497;-74
2022/12/15 05:31:51;;;;;;;0.00;0.00;;;-4.80;99.90;;;;;;5046958;28;20103;-73
2022/12/15 05:34:21;;;;;;;1.63;0.83;;;-4.70;99.90;;;;;;5044872;28;20044;-73
2022/12/15 05:36:48;;;;;;;0.57;0.57;;;-4.80;99.90;;;;;;5046719;28;20036;-73
2022/12/15 05:39:13;;;;;;;0.10;0.10;;;-4.80;99.90;;;;;;5046835;28;20124;-73
2022/12/15 05:41:39;;;;;;;0.67;0.67;;;-4.80;99.90;;;;;;5046234;28;20120;-73
2022/12/15 05:44:05;;;;;;;0.30;0.30;;;-4.80;99.90;;;;;;5045952;28;20152;-73
2022/12/15 05:46:30;;;;;;;0.00;0.00;;;-4.70;99.90;;;;;;5046063;28;20369;-73
2022/12/15 05:48:56;;;;;;;0.97;0.97;;;-4.80;99.90;;;;;;5046617;28;20048;-73
2022/12/15 05:51:22;;;;;;;0.07;0.07;;;-4.70;99.90;;;;;;5046545;28;20052;-73
2022/12/15 05:53:47;;;;;;;0.07;0.07;;;-4.70;99.90;;;;;;5046263;28;20052;-73
2022/12/15 05:56:14;;;;;;;0.10;0.10;;;-4.70;99.90;;;;;;5045881;28;20049;-73
2022/12/15 05:58:40;;;;;;;0.10;0.10;;;-4.70;99.90;;;;;;5044110;28;20056;-73
2022/12/15 06:01:12;;;;;;;0.00;0.00;;;-4.70;99.90;;;;;;5042883;28;20047;-73
2022/12/15 06:03:39;;;;;;;0.47;0.47;;;-4.60;99.90;;;;;;5043389;28;20059;-73
2022/12/15 06:06:06;;;;;;;0.00;0.00;;;-4.60;99.90;;;;;;5043979;28;20083;-74
2022/12/15 06:08:34;;;;;;;0.10;0.10;;;-4.50;99.90;;;;;;5044062;28;20102;-74
2022/12/15 06:11:01;;;;;;;1.83;1.20;;;-4.50;99.90;;;;;;5044054;28;20125;-73
2022/12/15 06:13:30;;;;;;;0.10;0.10;;;-4.50;99.90;;;;;;5043365;28;20053;-73
2022/12/15 06:16:04;;;;;;;0.20;0.20;;;-4.40;99.90;;;;;;5043619;28;20106;-73
2022/12/15 06:18:34;;;;;;;2.47;1.07;;;-4.30;99.90;;;;;;5043826;28;20506;-73
2022/12/15 06:21:07;;;;;;;0.00;0.00;;;-4.30;99.90;;;;;;5044148;28;20048;-73
2022/12/15 06:23:34;;;;;;;0.50;0.50;;;-4.20;99.90;;;;;;5044287;28;20048;-73
2022/12/15 06:26:08;;;;;;;0.20;0.20;;;-4.30;99.90;;;;;;5043499;28;20608;-73
2022/12/15 06:28:34;;;;;;;0.47;0.47;;;-4.20;99.90;;;;;;5044250;28;20428;-73
2022/12/15 06:31:02;;;;;;;0.30;0.30;;;-4.20;99.90;;;;;;5042756;28;20402;-73
2022/12/15 06:33:29;;;;;;;0.00;0.00;;;-4.10;99.90;;;;;;5045086;28;20423;-74
2022/12/15 06:35:55;;;;;;;0.33;0.33;;;-4.10;99.90;;;;;;5044067;28;20571;-73
2022/12/15 06:38:21;;;;;;;0.00;0.00;;;-4.00;99.90;;;;;;5043198;28;20040;-73
2022/12/15 06:40:58;;;;;;;0.53;0.53;;;-3.90;99.90;;;;;;5042860;28;20052;-73
2022/12/15 06:43:24;;;;;;;0.10;0.10;;;-3.80;99.90;;;;;;5043144;28;20395;-73
2022/12/15 06:45:50;;;;;;;0.60;0.60;;;-3.70;99.90;;;;;;5043327;28;20068;-73
2022/12/15 06:48:17;;;;;;;0.20;0.20;;;-3.60;99.90;;;;;;5042979;28;20597;-73
2022/12/15 06:50:47;;;;;;;0.10;0.10;;;-3.50;99.90;;;;;;5042885;28;20269;-73
2022/12/15 06:53:13;;;;;;;0.20;0.20;;;-3.40;99.90;;;;;;5042789;28;20033;-73
2022/12/15 06:55:40;;;;;;;0.10;0.10;;;-3.50;99.90;;;;;;5041692;28;20183;-73
2022/12/15 06:58:06;;;;;;;0.20;0.20;;;-3.50;99.90;;;;;;5042905;28;20277;-73
2022/12/15 07:00:35;;;;;;;0.07;0.07;;;-3.60;99.90;;;;;;5042844;28;20470;-73
2022/12/15 07:03:02;;;;;;;5.67;2.90;;;-3.60;99.90;;;;;;5042702;28;20045;-73
2022/12/15 07:05:28;;;;;;;0.77;0.77;;;-3.60;99.90;;;;;;5042798;28;20140;-73
2022/12/15 07:07:54;;;;;;;0.00;0.00;;;-3.60;99.90;;;;;;5037366;28;20328;-73
2022/12/15 07:10:20;;;;;;;0.57;0.57;;;-3.70;99.90;;;;;;5022818;28;20053;-73
2022/12/15 07:12:45;;;;;;;0.83;0.73;;;-3.70;99.90;;;;;;5022273;28;20056;-73
2022/12/15 07:15:11;;;;;;;0.00;0.00;;;-3.60;99.90;;;;;;5022710;28;20057;-73
2022/12/15 07:17:37;;;;;;;0.07;0.07;;;-3.60;99.90;;;;;;5022448;28;20060;-73
2022/12/15 07:20:06;;;;;;;0.40;0.40;;;-3.60;99.90;;;;;;5022867;28;20045;-73
2022/12/15 07:22:32;;;;;;;1.50;0.87;;;-3.70;99.90;;;;;;5022512;28;20111;-73
2022/12/15 07:24:58;;;;;;;0.00;0.00;;;-3.60;99.90;;;;;;5022245;28;20045;-73
2022/12/15 07:27:24;;;;;;;0.30;0.30;;;-3.70;99.90;;;;;;5022447;28;20068;-73
2022/12/15 07:29:51;;;;;;;0.00;0.00;;;-3.70;99.90;;;;;;5027102;28;20491;-73
2022/12/15 07:32:17;;;;;;;0.00;0.00;;;-3.60;99.90;;;;;;5029019;28;20506;-73
2022/12/15 07:34:43;;;;;;;0.00;0.00;;;-3.60;99.90;;;;;;5030704;28;20127;-73
2022/12/15 07:37:09;;;;;;;0.10;0.10;;;-3.60;99.90;;;;;;5031747;28;20152;-73
2022/12/15 07:39:35;;;;;;;0.10;0.10;;;-3.50;99.90;;;;;;5030519;28;20060;-73
2022/12/15 07:42:00;;;;;;;1.60;1.47;;;-3.50;99.90;;;;;;5032319;28;20045;-73
2022/12/15 07:44:27;;;;;;;0.23;0.23;;;-3.40;99.90;;;;;;5031392;28;20041;-73
2022/12/15 07:46:54;;;;;;;0.00;0.00;;;-3.40;99.90;;;;;;5030263;28;20119;-72
2022/12/15 07:49:20;;;;;;;0.03;0.03;;;-3.30;99.90;;;;;;5029726;28;20041;-72
2022/12/15 07:51:46;;;;;;;0.00;0.00;;;-3.30;99.90;;;;;;5021704;28;20510;-72
2022/12/15 07:54:12;;;;;;;0.27;0.27;;;-3.40;99.90;;;;;;5021956;28;20200;-72
2022/12/15 07:56:39;;;;;;;0.00;0.00;;;-3.30;99.90;;;;;;5021731;28;20631;-73
2022/12/15 07:59:05;;;;;;;0.00;0.00;;;-3.30;99.90;;;;;;5021621;28;21023;-73
2022/12/15 08:01:30;;;;;;;0.10;0.10;;;-3.30;99.90;;;;;;5021763;28;20128;-73
2022/12/15 08:03:56;;;;;;;0.13;0.13;;;-3.30;99.90;;;;;;5021780;28;20235;-73
2022/12/15 08:06:23;;;;;;;0.00;0.00;;;-3.30;99.90;;;;;;5021849;28;20136;-73
2022/12/15 08:08:49;;;;;;;0.80;0.77;;;-3.20;99.90;;;;;;5020072;28;20092;-73
2022/12/15 08:11:16;;;;;;;0.20;0.20;;;-3.30;99.90;;;;;;5021535;28;20042;-73
2022/12/15 08:13:43;;;;;;;3.40;0.77;;;-3.20;99.90;;;;;;5021499;28;20541;-72
2022/12/15 08:16:10;;;;;;;0.10;0.10;;;-3.10;99.90;;;;;;5020336;28;20139;-73
2022/12/15 08:18:36;;;;;;;0.13;0.13;;;-3.10;99.90;;;;;;5021351;28;20421;-73
2022/12/15 08:21:07;;;;;;;0.00;0.00;;;-3.10;99.90;;;;;;5021373;28;20048;-73
2022/12/15 08:23:33;;;;;;;0.60;0.60;;;-3.10;99.90;;;;;;5021604;28;20087;-73
2022/12/15 08:26:10;;;;;;;0.10;0.10;;;-3.10;99.90;;;;;;5019597;28;20048;-73
2022/12/15 08:28:37;;;;;;;0.30;0.30;;;-3.10;99.90;;;;;;5021142;28;20045;-72
2022/12/15 08:31:08;;;;;;;0.20;0.20;;;-3.10;99.90;;;;;;5024814;28;20131;-73
2022/12/15 08:33:35;;;;;;;0.53;0.53;;;-3.10;99.90;;;;;;5017586;28;20094;-73
2022/12/15 08:36:03;;;;;;;1.23;0.73;;;-3.00;99.90;;;;;;5017665;28;20049;-73
2022/12/15 08:38:31;;;;;;;0.40;0.40;;;-2.90;99.90;;;;;;5028030;28;20087;-73
2022/12/15 08:40:56;;;;;;;0.03;0.03;;;-2.90;99.90;;;;;;5037116;28;20095;-73
2022/12/15 08:43:22;;;;;;;0.30;0.30;;;-2.80;99.90;;;;;;5037103;28;20045;-72
2022/12/15 08:45:48;;;;;;;1.90;1.10;;;-2.70;99.90;;;;;;5037519;28;20060;-73
2022/12/15 08:48:14;;;;;;;0.00;0.00;;;-2.70;99.90;;;;;;5037080;28;20055;-73
2022/12/15 08:50:46;;;;;;;0.53;0.53;;;-2.60;99.90;;;;;;5037420;28;20115;-73
2022/12/15 08:53:12;;;;;;;0.70;0.70;;;-2.50;99.90;;;;;;5037129;28;20045;-73
2022/12/15 08:55:37;;;;;;;0.30;0.20;;;-2.50;99.90;;;;;;5037386;28;20075;-73
2022/12/15 08:58:03;;;;;;;3.50;1.27;;;-2.40;99.90;;;;;;5038975;28;20095;-73
2022/12/15 09:00:29;;;;;;;0.10;0.10;;;-2.40;99.90;;;;;;5041332;28;20119;-73
2022/12/15 09:02:55;;;;;;;0.20;0.20;;;-2.40;99.90;;;;;;5041098;28;20041;-73
2022/12/15 09:05:20;;;;;;;28.77;1.90;;;-2.30;99.90;;;;;;5041188;28;20040;-73
2022/12/15 09:07:46;;;;;;;0.10;0.10;;;-2.30;99.90;;;;;;5040489;28;20037;-74
2022/12/15 09:10:11;;;;;;;0.27;0.27;;;-2.10;99.90;;;;;;5041463;28;20099;-73
2022/12/15 09:12:37;;;;;;;0.67;0.63;;;-2.00;99.90;;;;;;5040889;28;20053;-73
2022/12/15 09:15:03;;;;;;;0.27;0.27;;;-2.00;99.90;;;;;;5040806;28;20033;-73
2022/12/15 09:17:29;;;;;;;0.83;0.83;;;-1.90;99.90;;;;;;5039197;28;20059;-73
2022/12/15 09:19:55;;;;;;;2.00;1.20;;;-1.80;99.90;;;;;;5041202;28;20053;-73
2022/12/15 09:22:21;;;;;;;0.67;0.67;;;-1.70;99.90;;;;;;5040983;28;20384;-73
2022/12/15 09:24:47;;;;;;;0.30;0.27;;;-1.60;99.90;;;;;;5040972;28;20040;-74
2022/12/15 09:27:13;;;;;;;0.00;0.00;;;-1.60;99.90;;;;;;5040145;28;20075;-74
2022/12/15 09:29:39;;;;;;;0.10;0.10;;;-1.60;99.90;;;;;;5040903;28;20586;-73
2022/12/15 09:32:05;;;;;;;2.03;1.93;;;-1.50;99.90;;;;;;5040947;28;20380;-73
2022/12/15 09:34:30;;;;;;;0.73;0.70;;;-1.40;99.90;;;;;;5040998;28;20051;-73
2022/12/15 09:36:56;;;;;;;0.63;0.23;;;-1.30;99.90;;;;;;5040798;28;20463;-73
2022/12/15 09:39:22;;;;;;;0.30;0.30;;;-1.20;99.90;;;;;;5040213;28;20132;-73
2022/12/15 09:41:53;;;;;;;0.20;0.20;;;-1.10;99.90;;;;;;5040337;28;20520;-73
2022/12/15 09:44:21;;;;;;;3.40;1.40;;;-0.80;99.90;;;;;;5040803;28;20049;-73
2022/12/15 09:46:56;;;;;;;2.33;0.90;;;-0.70;99.90;;;;;;5040459;28;20398;-73
2022/12/15 09:49:36;;;;;;;6.03;1.50;;;-0.60;99.90;;;;;;5040313;28;20044;-73
2022/12/15 09:52:06;;;;;;;0.30;0.30;;;-0.60;99.90;;;;;;5040242;28;20068;-73
2022/12/15 09:54:33;;;;;;;1.17;1.07;;;-0.50;99.90;;;;;;5040328;28;20605;-73
2022/12/15 09:57:25;;;;;;;0.25;0.25;;;-0.30;99.90;;;;;;5039785;28;20053;-73
2022/12/15 10:00:12;;;;;;;0.47;0.47;;;-0.20;99.90;;;;;;5039985;28;20063;-73
2022/12/15 10:02:47;;;;;;;0.40;0.40;;;-0.20;99.90;;;;;;5038502;28;20309;-73
2022/12/15 10:05:25;;;;;;;0.25;0.25;;;-0.30;99.90;;;;;;5040184;28;20114;-73
2022/12/15 10:07:51;;;;;;;0.70;0.70;;;-0.40;99.90;;;;;;5040240;28;20056;-73
2022/12/15 10:10:39;;;;;;;1.30;1.13;;;-0.40;99.90;;;;;;5050976;28;20105;-73
2022/12/15 10:13:27;;;;;;;0.30;0.30;;;-0.50;99.90;;;;;;5059952;28;20471;-73
2022/12/15 10:16:02;;;;;;;0.07;0.07;;;-0.50;99.90;;;;;;5060111;28;20259;-73
2022/12/15 10:18:37;;;;;;;0.05;0.05;;;-0.40;99.90;;;;;;5048962;28;20109;-73
2022/12/15 10:21:02;;;;;;;0.43;0.43;;;-0.30;99.90;;;;;;5039827;28;20061;-73
2022/12/15 10:23:28;;;;;;;0.10;0.10;;;0.70;99.90;;;;;;5039794;28;20147;-73
2022/12/15 10:26:22;;;;;;;0.67;0.67;;;-0.30;99.90;;;;;;5039862;28;20534;-73
2022/12/15 10:29:15;;;;;;;0.63;0.63;;;-0.20;99.90;;;;;;5039542;28;20128;-73
2022/12/15 10:31:57;;;;;;;0.67;0.67;;;-0.10;99.90;;;;;;5040195;28;20405;-73
2022/12/15 10:34:33;;;;;;;0.37;0.30;;;0.00;99.90;;;;;;5039700;28;20040;-73
2022/12/15 10:37:00;;;;;;;0.20;0.20;;;0.10;99.90;;;;;;5039466;28;20051;-73
2022/12/15 10:39:38;;;;;;;0.00;0.00;;;0.10;99.90;;;;;;5039007;28;20041;-73
2022/12/15 10:42:16;;;;;;;1.83;1.73;;;0.10;99.90;;;;;;5039127;28;20041;-73
2022/12/15 10:44:44;;;;;;;1.63;1.43;;;0.20;99.90;;;;;;5039712;28;20045;-73
2022/12/15 10:47:26;;;;;;;1.60;1.50;;;0.30;99.90;;;;;;5039243;28;20449;-73
2022/12/15 10:49:54;;;;;;;0.60;0.43;;;0.30;99.90;;;;;;5017837;28;20507;-73
2022/12/15 10:52:31;;;;;;;0.13;0.13;;;0.30;99.90;;;;;;5019230;28;20129;-73
2022/12/15 10:54:56;;;;;;;0.10;0.10;;;0.40;99.90;;;;;;5019529;28;20092;-73
2022/12/15 10:57:30;;;;;;;1.63;1.47;;;0.40;99.90;;;;;;5037630;28;20076;-73
2022/12/15 11:00:14;;;;;;;0.40;0.40;;;0.40;99.90;;;;;;5039128;28;20114;-73
2022/12/15 11:02:41;;;;;;;1.10;0.23;;;0.40;99.90;;;;;;5039086;28;20060;-73
2022/12/15 11:05:14;;;;;;;0.57;0.50;;;0.50;99.90;;;;;;5039338;28;20076;-73
2022/12/15 11:07:44;;;;;;;0.27;0.27;;;0.50;99.90;;;;;;5038686;28;20111;-73
2022/12/15 11:10:14;;;;;;;0.20;0.20;;;0.50;99.90;;;;;;5039086;28;20045;-73
2022/12/15 11:12:51;;;;;;;0.83;0.77;;;0.50;99.90;;;;;;5037222;28;20057;-73
2022/12/15 11:15:23;;;;;;;0.40;0.40;;;0.60;99.90;;;;;;5039052;28;20482;-73
2022/12/15 11:18:00;;;;;;;0.50;0.50;;;0.60;99.90;;;;;;5038260;28;20037;-73
2022/12/15 11:20:44;;;;;;;0.90;0.37;;;0.70;99.90;;;;;;5038297;28;20084;-73
2022/12/15 11:23:29;;;;;;;0.10;0.10;;;0.70;99.90;;;;;;5039824;28;20048;-73
2022/12/15 11:25:59;;;;;;;2.90;1.80;;;0.70;99.90;;;;;;5039094;28;20053;-73
2022/12/15 11:28:37;;;;;;;0.30;0.30;;;0.70;99.90;;;;;;5037955;28;20045;-74
2022/12/15 11:31:19;;;;;;;0.30;0.30;;;0.80;99.90;;;;;;5038471;28;20053;-73
2022/12/15 11:33:45;;;;;;;0.03;0.03;;;0.90;99.90;;;;;;5038622;28;20048;-74
2022/12/15 11:36:25;;;;;;;1.38;1.27;;;0.90;99.90;;;;;;5037932;28;20045;-73
2022/12/15 11:39:01;;;;;;;0.03;0.03;;;1.00;99.90;;;;;;5037924;28;20092;-74
2022/12/15 11:41:33;;;;;;;;;;;1.00;99.90;;;;;;5054527;28;20153;-74
2022/12/15 11:44:33;;;;;;;0.65;0.45;;;1.10;99.90;;;;;;5059667;28;19924;-74
2022/12/15 11:47:26;;;;;;;0.20;0.20;;;1.10;99.90;;;;;;5059722;28;20115;-74
2022/12/15 11:50:06;;;;;;;0.28;0.28;;;0.90;99.90;;;;;;5059523;28;20066;-73
2022/12/15 11:52:53;;;;;;;0.20;0.20;;;1.00;99.90;;;;;;5059709;28;20512;-74
2022/12/15 11:55:22;;;;;;;;;;;1.00;99.90;;;;;;5059720;28;20316;-73
2022/12/15 11:57:56;;;;;;;0.63;0.63;;;1.00;99.90;;;;;;5059124;28;20327;-74
2022/12/15 12:00:22;;;;;;;0.20;0.20;;;1.00;99.90;;;;;;5059636;28;20052;-74
2022/12/15 12:02:54;;;;;;;0.00;0.00;;;1.00;99.90;;;;;;5061213;28;20520;-74
2022/12/15 12:05:39;;;;;;;3.10;1.80;;;1.10;99.90;;;;;;5060855;28;20851;-74
2022/12/15 12:08:20;;;;;;;0.25;0.25;;;1.10;99.90;;;;;;5061164;28;20045;-75
2022/12/15 12:11:12;;;;;;;0.17;0.17;;;1.10;99.90;;;;;;5061570;28;20056;-74
2022/12/15 12:14:15;;;;;;;0.17;0.17;;;1.20;99.90;;;;;;5061668;28;20562;-74
2022/12/15 12:17:02;;;;;;;0.55;0.35;;;1.40;99.90;;;;;;5061445;28;20052;-74
2022/12/15 12:19:40;;;;;;;0.00;0.00;;;1.70;99.90;;;;;;5061844;28;20126;-74
2022/12/15 12:22:21;;;;;;;0.30;0.30;;;1.80;99.90;;;;;;5061133;28;20098;-74
2022/12/15 12:24:54;;;;;;;1.75;0.98;;;2.00;99.90;;;;;;5061451;28;20486;-74
2022/12/15 12:27:27;;;;;;;0.85;0.82;;;2.10;99.90;;;;;;5061381;28;20052;-74
2022/12/15 12:30:16;;;;;;;0.08;0.08;;;2.10;99.90;;;;;;5061675;28;20104;-74
2022/12/15 12:32:57;;;;;;;0.85;0.82;;;2.10;99.90;;;;;;5060518;28;20057;-74
2022/12/15 12:35:23;;;;;;;2.75;0.85;;;2.30;99.90;;;;;;5061347;28;20139;-74
2022/12/15 12:37:58;;;;;;;0.17;0.17;;;2.30;99.90;;;;;;5060939;28;20435;-74
2022/12/15 12:40:48;;;;;;;0.90;0.83;;;2.40;99.90;;;;;;5061634;28;20052;-74
2022/12/15 12:43:31;;;;;;;0.40;0.40;;;2.40;99.90;;;;;;5060727;28;21222;-74
2022/12/15 12:46:22;;;;;;;1.25;1.15;;;2.50;99.90;;;;;;5061102;28;20048;-74
2022/12/15 12:48:57;;;;;;;0.00;0.00;;;2.60;99.90;;;;;;5061210;28;20045;-74
2022/12/15 12:51:36;;;;;;;0.40;0.40;;;2.70;99.90;;;;;;5060072;28;20076;-74
2022/12/15 12:54:09;;;;;;;0.75;0.75;;;2.70;99.90;;;;;;5061242;28;20573;-74
2022/12/15 12:56:42;;;;;;;0.03;0.03;;;2.80;99.90;;;;;;5061482;28;20055;-74
2022/12/15 13:00:04;;;;;;;0.32;0.32;;;2.80;99.90;;;;;;5060921;28;20056;-74
2022/12/15 13:02:30;;;;;;;0.85;0.38;;;2.70;99.90;;;;;;5037090;28;20126;-74
2022/12/15 13:05:23;;;;;;;1.65;0.63;;;2.60;99.90;;;;;;5061020;28;20048;-74
2022/12/15 13:08:13;;;;;;;3.15;2.40;;;2.50;99.90;;;;;;5060838;28;20044;-75
2022/12/15 13:10:41;;;;;;;0.15;0.15;;;2.60;99.90;;;;;;5059690;28;20049;-75
2022/12/15 13:13:40;;;;;;;0.17;0.17;;;2.60;99.90;;;;;;5061176;28;20119;-75
2022/12/15 13:16:26;;;;;;;0.40;0.40;;;2.60;99.90;;;;;;5060636;28;20048;-75
2022/12/15 13:19:03;;;;;;;0.00;0.00;;;2.60;59.20;;;;;;5060728;28;20124;-75
2022/12/15 13:21:43;;;;;;;0.40;0.40;;;2.50;99.90;;;;;;5060240;28;20041;-75
2022/12/15 13:24:32;;;;;;;1.08;0.75;;;2.50;99.90;;;;;;5058343;28;20052;-75
2022/12/15 13:27:10;;;;;;;0.13;0.13;;;2.50;99.90;;;;;;5058556;28;20417;-75
2022/12/15 13:29:59;;;;;;;0.63;0.47;;;2.50;99.90;;;;;;5058304;28;20141;-75
2022/12/15 13:32:53;;;;;;;0.00;0.00;;;2.50;99.90;;;;;;5058142;28;20576;-75
2022/12/15 13:35:30;;;;;;;0.43;0.43;;;2.60;99.90;;;;;;5058262;28;20520;-75
2022/12/15 13:38:03;;;;;;;1.15;0.98;;;2.60;99.90;;;;;;5058395;28;20050;-75
2022/12/15 13:40:34;;;;;;;0.10;0.10;;;2.50;99.90;;;;;;5058787;28;20478;-75
2022/12/15 13:43:03;;;;;;;0.30;0.30;;;2.50;99.90;;;;;;5058385;28;20052;-75
2022/12/15 13:45:50;;;;;;;0.03;0.03;;;2.60;1.00;;;;;;5062044;28;20067;-75
2022/12/15 13:48:22;;;;;;;0.50;0.43;;;2.50;99.90;;;;;;5061754;28;20087;-75
2022/12/15 13:51:02;;;;;;;1.65;1.25;;;2.30;1.00;;;;;;5061586;28;20135;-75
2022/12/15 13:53:50;;;;;;;0.38;0.38;;;2.20;1.00;;;;;;5061549;28;20098;-75
2022/12/15 13:56:34;;;;;;;1.27;1.17;;;2.10;1.00;;;;;;5060957;28;20134;-75
2022/12/15 13:59:08;;;;;;;0.77;0.77;;;2.00;8.90;;;;;;5061389;28;20056;-75
2022/12/15 14:01:34;;;;;;;1.55;0.75;;;2.00;18.50;;;;;;5061785;28;20094;-75
2022/12/15 14:04:15;;;;;;;0.10;0.10;;;1.90;66.30;;;;;;5061747;28;20123;-74
2022/12/15 14:06:49;;;;;;;0.52;0.52;;;1.90;25.20;;;;;;5061469;28;20045;-75
2022/12/15 14:09:19;;;;;;;0.10;0.10;;;1.80;69.70;;;;;;5061423;28;20492;-75
2022/12/15 14:11:45;;;;;;;0.68;0.63;;;1.70;99.90;;;;;;5061688;28;20048;-74
2022/12/15 14:14:22;;;;;;;1.40;1.10;;;1.60;99.90;;;;;;5061488;28;20055;-75
2022/12/15 14:17:05;;;;;;;0.28;0.28;;;1.60;91.90;;;;;;5061145;28;20137;-75
2022/12/15 14:19:39;;;;;;;2.10;1.53;;;1.60;72.30;;;;;;5061709;28;20049;-75
2022/12/15 14:22:27;;;;;;;0.13;0.13;;;1.50;93.70;;;;;;5061312;28;20070;-75
2022/12/15 14:25:00;;;;;;;0.00;0.00;;;1.50;99.90;;;;;;5061724;28;20044;-75
2022/12/15 14:27:32;;;;;;;0.20;0.20;;;1.50;99.90;;;;;;5060792;28;20387;-75
2022/12/15 14:30:10;;;;;;;0.13;0.13;;;1.40;99.90;;;;;;5060964;28;20049;-75
2022/12/15 14:32:36;;;;;;;2.23;2.07;;;1.40;99.90;;;;;;5064005;28;20089;-74
2022/12/15 14:35:03;;;;;;;1.00;0.75;;;1.40;99.90;;;;;;5061840;28;20052;-75
2022/12/15 14:37:28;;;;;;;4.90;0.73;;;1.50;99.90;;;;;;5060737;28;20098;-75
2022/12/15 14:39:55;;;;;;;0.93;0.90;;;1.50;99.90;;;;;;5060506;28;20044;-75
2022/12/15 14:42:25;;;;;;;0.25;0.25;;;1.60;99.90;;;;;;5060859;28;20044;-75
2022/12/15 14:44:51;;;;;;;0.40;0.40;;;1.50;99.90;;;;;;5060845;28;20052;-75
2022/12/15 14:47:27;;;;;;;0.20;0.20;;;1.60;99.90;;;;;;5060521;28;20049;-75
2022/12/15 14:49:55;;;;;;;0.20;0.20;;;1.60;99.90;;;;;;5060508;28;20109;-75
2022/12/15 14:52:40;;;;;;;0.57;0.57;;;1.50;99.90;;;;;;5060495;28;20131;-75
2022/12/15 14:55:28;;;;;;;0.57;0.57;;;1.50;99.90;;;;;;5059022;28;20084;-75
2022/12/15 14:57:54;;;;;;;1.30;1.20;;;1.50;99.90;;;;;;5060585;28;20441;-75
2022/12/15 15:00:35;;;;;;;0.00;0.00;;;1.40;99.90;;;;;;5060294;28;20048;-75
2022/12/15 15:03:20;;;;;;;0.30;0.30;;;1.50;99.90;;;;;;5060153;28;20049;-75
2022/12/15 15:05:52;;;;;;;1.27;1.20;;;1.50;99.90;;;;;;5051403;28;20067;-75
2022/12/15 15:08:29;;;;;;;0.90;0.83;;;1.40;99.90;;;;;;5040168;28;20128;-75
2022/12/15 15:11:17;;;;;;;0.57;0.57;;;1.30;99.90;;;;;;5040056;28;20138;-75
2022/12/15 15:13:43;;;;;;;0.07;0.07;;;1.20;99.90;;;;;;5020177;28;20527;-75
2022/12/15 15:16:16;;;;;;;0.53;0.53;;;1.10;99.90;;;;;;5020397;28;20478;-75
2022/12/15 15:18:42;;;;;;;0.00;0.00;;;0.90;99.90;;;;;;5039883;28;20045;-75
2022/12/15 15:21:16;;;;;;;0.32;0.22;;;0.90;99.90;;;;;;5039195;28;20056;-75
2022/12/15 15:24:01;;;;;;;1.67;0.85;;;0.80;99.90;;;;;;5040033;28;20446;-75
2022/12/15 15:26:28;;;;;;;3.00;1.10;;;1.00;99.90;;;;;;5038743;28;20087;-75
2022/12/15 15:28:54;;;;;;;0.60;0.60;;;1.00;99.90;;;;;;5040061;28;20048;-75
2022/12/15 15:31:36;;;;;;;0.23;0.23;;;1.10;99.90;;;;;;5035715;28;20038;-75
2022/12/15 15:34:03;;;;;;;0.17;0.17;;;1.10;99.90;;;;;;5035394;28;20148;-75